createdAt,value
2023-04-22T00:00:19.361Z,7.95
2023-04-22T00:02:49.077Z,8.13
2023-04-22T00:05:20.520Z,8.02
2023-04-22T00:07:53.034Z,8.32
2023-04-22T00:10:22.530Z,8.68
2023-04-22T00:12:52.052Z,8.88
2023-04-22T00:15:22.268Z,8.23
2023-04-22T00:17:52.180Z,8.43
2023-04-22T00:20:23.523Z,8.32
2023-04-22T00:22:55.635Z,8.70
2023-04-22T00:25:25.115Z,10.02
2023-04-22T00:27:54.650Z,9.90
2023-04-22T00:30:24.200Z,9.23
2023-04-22T00:32:53.746Z,8.95
2023-04-22T00:35:23.339Z,9.90
2023-04-22T00:37:55.507Z,9.93
2023-04-22T00:40:25.326Z,9.38
2023-04-22T00:42:54.899Z,9.82
2023-04-22T00:45:24.509Z,11.15
2023-04-22T00:47:54.956Z,9.73
2023-04-22T00:50:24.500Z,10.68
2023-04-22T00:52:56.652Z,10.30
2023-04-22T00:55:26.599Z,11.20
2023-04-22T00:57:59.540Z,11.10
2023-04-22T01:00:30.366Z,12.32
2023-04-22T01:03:01.068Z,11.13
2023-04-22T01:05:33.725Z,11.70
2023-04-22T01:08:06.262Z,11.60
2023-04-22T01:10:36.198Z,10.50
2023-04-22T01:13:05.914Z,12.10
2023-04-22T01:15:35.819Z,10.95
2023-04-22T01:18:05.550Z,10.05
2023-04-22T01:20:35.144Z,11.68
2023-04-22T01:23:11.951Z,10.45
2023-04-22T01:25:44.085Z,11.15
2023-04-22T01:28:13.946Z,11.95
2023-04-22T01:30:44.578Z,11.32
2023-04-22T01:33:14.853Z,12.65
2023-04-22T01:35:44.539Z,11.65
2023-04-22T01:38:15.583Z,11.07
2023-04-22T01:40:47.692Z,10.85
2023-04-22T01:43:17.203Z,11.35
2023-04-22T01:45:46.965Z,10.57
2023-04-22T01:48:16.616Z,11.32
2023-04-22T01:50:46.208Z,10.75
2023-04-22T01:53:15.860Z,11.05
2023-04-22T01:55:48.001Z,10.50
2023-04-22T01:58:17.632Z,10.95
2023-04-22T02:00:47.881Z,10.10
2023-04-22T02:03:17.433Z,10.65
2023-04-22T02:05:47.115Z,10.85
2023-04-22T02:08:16.625Z,11.10
2023-04-22T02:10:48.792Z,11.23
2023-04-22T02:13:18.386Z,11.82
2023-04-22T02:15:48.080Z,11.48
2023-04-22T02:18:18.121Z,11.77
2023-04-22T02:20:47.747Z,11.00
2023-04-22T02:23:17.320Z,10.88
2023-04-22T02:25:54.824Z,10.38
2023-04-22T02:28:24.375Z,10.90
2023-04-22T02:30:53.927Z,11.25
2023-04-22T02:33:23.546Z,11.25
2023-04-22T02:35:53.089Z,11.48
2023-04-22T02:38:22.728Z,11.00
2023-04-22T02:40:54.829Z,10.85
2023-04-22T02:43:24.428Z,10.13
2023-04-22T02:45:53.971Z,10.63
2023-04-22T02:48:23.506Z,10.75
2023-04-22T02:50:53.848Z,11.82
2023-04-22T02:53:23.376Z,10.68
2023-04-22T02:55:55.918Z,10.65
2023-04-22T02:58:26.337Z,12.70
2023-04-22T03:00:57.038Z,11.73
2023-04-22T03:03:27.085Z,11.77
2023-04-22T03:05:56.807Z,10.38
2023-04-22T03:08:26.557Z,10.55
2023-04-22T03:10:58.726Z,10.75
2023-04-22T03:13:28.267Z,10.07
2023-04-22T03:15:57.821Z,10.75
2023-04-22T03:18:27.383Z,9.98
2023-04-22T03:20:56.907Z,10.68
2023-04-22T03:23:26.448Z,12.15
2023-04-22T03:25:58.550Z,11.98
2023-04-22T03:28:28.090Z,13.02
2023-04-22T03:30:57.632Z,13.57
2023-04-22T03:33:27.491Z,13.02
2023-04-22T03:35:57.519Z,12.25
2023-04-22T03:38:27.351Z,13.05
2023-04-22T03:40:59.468Z,13.07
2023-04-22T03:43:29.030Z,13.07
2023-04-22T03:45:58.610Z,12.82
2023-04-22T03:48:29.208Z,13.13
2023-04-22T03:50:58.763Z,13.05
2023-04-22T03:53:28.315Z,12.63
2023-04-22T03:56:00.662Z,13.30
2023-04-22T03:58:30.200Z,12.05
2023-04-22T04:00:59.728Z,12.90
2023-04-22T04:03:30.999Z,12.43
2023-04-22T04:06:00.854Z,11.10
2023-04-22T04:08:30.945Z,11.55
2023-04-22T04:11:03.063Z,10.35
2023-04-22T04:13:32.723Z,9.85
2023-04-22T04:16:02.460Z,10.23
2023-04-22T04:18:32.907Z,10.05
2023-04-22T04:21:02.459Z,11.65
2023-04-22T04:23:32.325Z,16.17
2023-04-22T04:26:05.845Z,13.60
2023-04-22T04:28:36.324Z,9.43
2023-04-22T04:31:06.047Z,9.35
2023-04-22T04:33:37.162Z,9.80
2023-04-22T04:36:08.962Z,9.20
2023-04-22T04:38:39.210Z,9.45
2023-04-22T04:41:11.492Z,10.02
2023-04-22T04:43:41.048Z,10.10
2023-04-22T04:46:11.146Z,11.40
2023-04-22T04:48:42.498Z,14.40
2023-04-22T04:51:12.737Z,12.80
2023-04-22T04:53:43.744Z,12.23
2023-04-22T04:56:17.011Z,10.38
2023-04-22T04:58:46.540Z,9.98
2023-04-22T05:01:16.137Z,9.43
2023-04-22T05:03:45.862Z,9.05
2023-04-22T05:06:15.493Z,10.27
2023-04-22T05:08:45.066Z,16.90
2023-04-22T05:11:17.214Z,22.20
2023-04-22T05:13:48.006Z,25.73
2023-04-22T05:16:17.731Z,21.45
2023-04-22T05:18:47.299Z,12.40
2023-04-22T05:21:17.025Z,10.45
2023-04-22T05:23:46.560Z,9.93
2023-04-22T05:26:18.812Z,9.23
2023-04-22T05:28:48.350Z,9.07
2023-04-22T05:31:17.939Z,8.70
2023-04-22T05:33:47.480Z,10.35
2023-04-22T05:36:17.164Z,9.45
2023-04-22T05:38:46.703Z,9.90
2023-04-22T05:41:18.890Z,9.82
2023-04-22T05:43:48.470Z,9.15
2023-04-22T05:46:18.101Z,9.23
2023-04-22T05:48:49.139Z,10.20
2023-04-22T05:51:18.767Z,8.75
2023-04-22T05:53:48.332Z,10.57
2023-04-22T05:56:21.172Z,10.45
2023-04-22T05:58:50.686Z,10.25
2023-04-22T06:01:20.304Z,9.80
2023-04-22T06:03:50.065Z,9.02
2023-04-22T06:06:20.077Z,9.07
2023-04-22T06:08:49.620Z,9.15
2023-04-22T06:11:22.251Z,9.43
2023-04-22T06:13:52.014Z,9.38
2023-04-22T06:16:21.602Z,9.27
2023-04-22T06:18:51.263Z,9.43
2023-04-22T06:21:20.846Z,9.57
2023-04-22T06:23:50.450Z,9.55
2023-04-22T06:26:22.776Z,10.23
2023-04-22T06:28:52.456Z,8.93
2023-04-22T06:31:22.100Z,9.15
2023-04-22T06:33:51.786Z,9.48
2023-04-22T06:36:21.366Z,9.20
2023-04-22T06:38:50.872Z,8.55
2023-04-22T06:41:24.000Z,6.03
2023-04-22T06:43:53.592Z,9.18
2023-04-22T06:46:23.168Z,9.07
2023-04-22T06:48:52.802Z,8.98
2023-04-22T06:51:22.559Z,9.82
2023-04-22T06:53:52.090Z,9.50
2023-04-22T06:56:24.247Z,9.57
2023-04-22T06:58:53.867Z,9.40
2023-04-22T07:01:23.407Z,8.60
2023-04-22T07:03:53.053Z,8.90
2023-04-22T07:06:22.707Z,9.68
2023-04-22T07:08:52.309Z,9.27
2023-04-22T07:11:24.501Z,9.77
2023-04-22T07:13:54.045Z,8.80
2023-04-22T07:16:23.612Z,8.82
2023-04-22T07:18:53.393Z,8.90
2023-04-22T07:21:23.091Z,8.80
2023-04-22T07:23:52.801Z,8.20
2023-04-22T07:26:24.969Z,8.10
2023-04-22T07:28:54.704Z,9.05
2023-04-22T07:31:24.278Z,8.30
2023-04-22T07:33:53.852Z,9.68
2023-04-22T07:36:23.659Z,9.30
2023-04-22T07:38:53.239Z,8.50
2023-04-22T07:41:25.337Z,8.75
2023-04-22T07:43:55.638Z,8.23
2023-04-22T07:46:25.199Z,9.07
2023-04-22T07:48:54.785Z,8.68
2023-04-22T07:51:25.958Z,7.75
2023-04-22T07:53:55.630Z,7.57
2023-04-22T07:56:27.734Z,8.10
2023-04-22T07:58:57.298Z,7.32
2023-04-22T08:01:26.842Z,7.75
2023-04-22T08:03:56.468Z,7.25
2023-04-22T08:06:26.293Z,7.57
2023-04-22T08:08:55.887Z,6.32
2023-04-22T08:11:28.122Z,7.47
2023-04-22T08:13:57.710Z,7.25
2023-04-22T08:16:27.449Z,7.80
2023-04-22T08:18:57.962Z,4.00
2023-04-22T08:21:27.556Z,6.85
2023-04-22T08:23:57.114Z,7.35
2023-04-22T08:26:29.338Z,5.65
2023-04-22T08:28:59.060Z,7.10
2023-04-22T08:31:28.622Z,7.20
2023-04-22T08:33:58.636Z,6.40
2023-04-22T08:36:28.594Z,6.43
2023-04-22T08:38:58.180Z,4.05
2023-04-22T08:41:30.791Z,6.90
2023-04-22T08:44:00.698Z,5.95
2023-04-22T08:46:30.475Z,5.55
2023-04-22T08:49:04.020Z,6.20
2023-04-22T08:51:35.118Z,6.35
2023-04-22T08:54:04.817Z,6.70
2023-04-22T08:56:38.225Z,6.75
2023-04-22T08:59:08.059Z,6.18
2023-04-22T09:01:38.680Z,5.90
2023-04-22T09:04:09.313Z,6.03
2023-04-22T09:06:41.309Z,6.13
2023-04-22T09:09:11.620Z,5.93
2023-04-22T09:11:44.212Z,6.07
2023-04-22T09:14:13.753Z,6.22
2023-04-22T09:16:44.935Z,5.95
2023-04-22T09:19:15.916Z,6.07
2023-04-22T09:21:49.096Z,6.43
2023-04-22T09:24:20.850Z,5.93
2023-04-22T09:26:53.008Z,5.63
2023-04-22T09:29:22.594Z,5.82
2023-04-22T09:31:53.288Z,5.25
2023-04-22T09:34:25.059Z,6.43
2023-04-22T09:36:54.638Z,6.47
2023-04-22T09:39:26.477Z,5.82
2023-04-22T09:42:00.054Z,5.72
2023-04-22T09:44:30.533Z,4.43
2023-04-22T09:47:00.106Z,5.93
2023-04-22T09:49:30.624Z,6.00
2023-04-22T09:52:00.733Z,5.43
2023-04-22T09:54:30.270Z,4.53
2023-04-22T09:57:02.671Z,4.47
2023-04-22T09:59:33.064Z,5.78
2023-04-22T10:02:04.773Z,3.97
2023-04-22T10:04:34.867Z,5.75
2023-04-22T10:07:04.695Z,4.93
2023-04-22T10:09:34.385Z,4.38
2023-04-22T10:12:07.931Z,4.65
2023-04-22T10:14:37.455Z,4.30
2023-04-22T10:17:08.433Z,4.90
2023-04-22T10:19:38.890Z,4.55
2023-04-22T10:22:10.640Z,4.35
2023-04-22T10:24:41.048Z,4.70
2023-04-22T10:27:13.696Z,4.80
2023-04-22T10:29:44.214Z,5.30
2023-04-22T10:32:29.231Z,5.60
2023-04-22T10:35:15.276Z,4.38
2023-04-22T10:40:19.111Z,3.78
2023-04-22T10:42:56.059Z,4.97
2023-04-22T10:45:27.943Z,4.50
2023-04-22T10:47:57.579Z,4.90
2023-04-22T10:50:28.793Z,4.47
2023-04-22T10:53:00.474Z,5.03
2023-04-22T10:55:53.683Z,5.00
2023-04-22T10:58:27.506Z,3.22
2023-04-22T11:01:03.310Z,5.00
2023-04-22T11:03:33.608Z,5.85
2023-04-22T11:06:19.821Z,4.40
2023-04-22T11:08:50.631Z,3.60
2023-04-22T11:11:21.432Z,5.35
2023-04-22T11:13:53.723Z,4.03
2023-04-22T11:16:25.169Z,5.00
2023-04-22T11:18:55.399Z,4.13
2023-04-22T11:21:26.338Z,4.60
2023-04-22T11:23:57.163Z,4.55
2023-04-22T11:26:37.816Z,4.65
2023-04-22T11:29:11.400Z,4.60
2023-04-22T11:31:41.018Z,4.32
2023-04-22T11:34:12.129Z,4.55
2023-04-22T11:36:45.627Z,4.80
2023-04-22T11:39:16.941Z,4.43
2023-04-22T11:41:46.636Z,2.95
2023-04-22T11:44:19.551Z,3.03
2023-04-22T11:46:49.074Z,3.95
2023-04-22T11:49:19.833Z,3.95
2023-04-22T11:51:57.242Z,4.10
2023-04-22T11:54:34.298Z,3.90
2023-04-22T11:57:05.846Z,4.35
2023-04-22T11:59:38.275Z,4.97
2023-04-22T12:02:08.668Z,4.65
2023-04-22T12:04:42.679Z,3.85
2023-04-22T12:07:12.291Z,4.85
2023-04-22T12:09:42.382Z,3.80
2023-04-22T12:12:12.111Z,4.20
2023-04-22T12:14:48.524Z,4.60
2023-04-22T12:17:20.198Z,4.55
2023-04-22T12:19:50.461Z,4.35
2023-04-22T12:22:27.088Z,4.72
2023-04-22T12:24:56.933Z,4.15
2023-04-22T12:27:26.510Z,5.13
2023-04-22T12:29:59.408Z,5.30
2023-04-22T12:32:29.962Z,5.07
2023-04-22T12:34:59.478Z,4.18
2023-04-22T12:37:29.020Z,4.75
2023-04-22T12:39:58.549Z,5.05
2023-04-22T12:42:28.106Z,4.32
2023-04-22T12:45:00.233Z,4.70
2023-04-22T12:47:29.853Z,4.18
2023-04-22T12:50:01.444Z,4.32
2023-04-22T12:52:31.423Z,4.38
2023-04-22T12:55:00.932Z,3.80
2023-04-22T12:57:30.518Z,4.45
2023-04-22T13:00:04.440Z,4.10
2023-04-22T13:02:34.143Z,4.80
2023-04-22T13:05:03.757Z,4.13
2023-04-22T13:07:35.483Z,3.20
2023-04-22T13:10:05.215Z,4.22
2023-04-22T13:12:35.878Z,4.00
2023-04-22T13:15:11.040Z,4.30
2023-04-22T13:17:41.240Z,4.55
2023-04-22T13:20:14.261Z,4.30
2023-04-22T13:22:44.212Z,4.38
2023-04-22T13:25:13.950Z,4.00
2023-04-22T13:27:43.477Z,4.15
2023-04-22T13:30:16.895Z,3.40
2023-04-22T13:32:46.520Z,2.40
2023-04-22T13:35:18.231Z,3.80
2023-04-22T13:37:47.785Z,3.65
2023-04-22T13:40:17.370Z,3.42
2023-04-22T13:42:47.065Z,3.10
2023-04-22T13:45:19.277Z,3.42
2023-04-22T13:47:48.962Z,3.90
2023-04-22T13:50:18.515Z,3.22
2023-04-22T13:52:48.238Z,3.70
2023-04-22T13:55:17.791Z,3.65
2023-04-22T13:57:47.855Z,3.70
2023-04-22T14:00:21.049Z,3.63
2023-04-22T14:02:51.041Z,3.72
2023-04-22T14:05:20.823Z,4.15
2023-04-22T14:07:50.392Z,4.10
2023-04-22T14:10:20.542Z,3.63
2023-04-22T14:12:50.348Z,4.30
2023-04-22T14:15:22.726Z,3.33
2023-04-22T14:17:52.227Z,3.20
2023-04-22T14:20:21.796Z,3.80
2023-04-22T14:22:51.339Z,3.17
2023-04-22T14:25:21.118Z,4.05
2023-04-22T14:27:50.717Z,4.45
2023-04-22T14:30:23.128Z,4.25
2023-04-22T14:32:53.262Z,3.30
2023-04-22T14:35:22.930Z,3.72
2023-04-22T14:37:52.539Z,4.13
2023-04-22T14:40:26.300Z,4.22
2023-04-22T14:42:55.983Z,4.72
2023-04-22T14:45:29.025Z,3.20
2023-04-22T14:47:58.801Z,3.67
2023-04-22T14:50:28.942Z,3.55
2023-04-22T14:52:59.099Z,3.55
2023-04-22T14:55:29.321Z,3.88
2023-04-22T14:57:59.575Z,3.33
2023-04-22T15:00:32.284Z,3.13
2023-04-22T15:03:02.018Z,3.72
2023-04-22T15:05:31.680Z,3.20
2023-04-22T15:08:01.210Z,3.00
2023-04-22T15:10:31.040Z,4.15
2023-04-22T15:13:01.607Z,3.10
2023-04-22T15:15:33.794Z,3.83
2023-04-22T15:18:03.425Z,2.97
2023-04-22T15:20:33.105Z,4.25
2023-04-22T15:23:04.020Z,4.00
2023-04-22T15:25:33.616Z,3.63
2023-04-22T15:28:03.572Z,3.47
2023-04-22T15:30:35.730Z,4.18
2023-04-22T15:33:05.403Z,3.90
2023-04-22T15:35:35.029Z,3.08
2023-04-22T15:38:04.822Z,4.03
2023-04-22T15:40:34.392Z,3.90
2023-04-22T15:43:03.942Z,3.22
2023-04-22T15:45:37.095Z,4.28
2023-04-22T15:48:07.048Z,4.05
2023-04-22T15:50:38.878Z,3.90
2023-04-22T15:53:09.592Z,4.13
2023-04-22T15:55:39.155Z,4.10
2023-04-22T15:58:08.708Z,4.40
2023-04-22T16:00:41.280Z,4.47
2023-04-22T16:03:11.684Z,4.15
2023-04-22T16:05:41.350Z,3.35
2023-04-22T16:08:10.939Z,4.25
2023-04-22T16:10:40.466Z,4.43
2023-04-22T16:13:10.120Z,3.67
2023-04-22T16:15:42.324Z,3.60
2023-04-22T16:18:12.059Z,3.92
2023-04-22T16:20:41.811Z,4.18
2023-04-22T16:23:11.323Z,4.97
2023-04-22T16:25:41.083Z,3.90
2023-04-22T16:28:11.343Z,4.25
2023-04-22T16:30:43.560Z,4.38
2023-04-22T16:33:13.304Z,5.10
2023-04-22T16:35:44.293Z,3.55
2023-04-22T16:38:13.827Z,4.78
2023-04-22T16:40:43.352Z,3.55
2023-04-22T16:43:13.107Z,4.22
2023-04-22T16:45:45.413Z,4.85
2023-04-22T16:48:14.996Z,5.40
2023-04-22T16:50:44.714Z,4.10
2023-04-22T16:53:14.311Z,4.53
2023-04-22T16:55:43.850Z,4.78
2023-04-22T16:58:13.786Z,3.70
2023-04-22T17:00:47.575Z,3.75
2023-04-22T17:03:17.699Z,3.95
2023-04-22T17:05:47.295Z,4.70
2023-04-22T17:08:16.844Z,4.97
2023-04-22T17:10:48.321Z,5.07
2023-04-22T17:13:18.624Z,4.75
2023-04-22T17:15:50.855Z,5.10
2023-04-22T17:18:20.515Z,5.28
2023-04-22T17:20:50.078Z,4.93
2023-04-22T17:23:20.631Z,4.35
2023-04-22T17:25:50.202Z,4.80
2023-04-22T17:28:19.804Z,4.30
2023-04-22T17:30:54.520Z,4.35
2023-04-22T17:33:26.700Z,5.22
2023-04-22T17:35:56.252Z,4.47
2023-04-22T17:38:25.965Z,5.28
2023-04-22T17:40:55.533Z,4.75
2023-04-22T17:43:25.123Z,4.50
2023-04-22T17:45:57.363Z,4.22
2023-04-22T17:48:26.927Z,4.45
2023-04-22T17:50:56.540Z,4.57
2023-04-22T17:53:26.105Z,4.22
2023-04-22T17:55:55.664Z,3.47
2023-04-22T17:58:25.715Z,4.05
2023-04-22T18:00:58.790Z,5.68
2023-04-22T18:03:28.636Z,4.97
2023-04-22T18:05:58.246Z,5.28
2023-04-22T18:08:27.836Z,5.05
2023-04-22T18:10:57.741Z,5.88
2023-04-22T18:13:27.307Z,4.97
2023-04-22T18:15:59.432Z,4.95
2023-04-22T18:18:28.997Z,4.97
2023-04-22T18:20:58.621Z,5.43
2023-04-22T18:23:28.151Z,4.57
2023-04-22T18:25:57.755Z,5.30
2023-04-22T18:28:27.261Z,4.97
2023-04-22T18:30:59.474Z,4.85
2023-04-22T18:33:29.081Z,5.07
2023-04-22T18:36:00.056Z,5.00
2023-04-22T18:38:29.920Z,5.10
2023-04-22T18:40:59.567Z,5.45
2023-04-22T18:43:29.200Z,5.88
2023-04-22T18:46:01.367Z,5.57
2023-04-22T18:48:30.988Z,6.30
2023-04-22T18:51:00.541Z,7.38
2023-04-22T18:53:30.529Z,7.07
2023-04-22T18:56:00.086Z,5.68
2023-04-22T18:58:29.622Z,7.00
2023-04-22T19:01:01.902Z,6.15
2023-04-22T19:03:31.542Z,6.15
2023-04-22T19:06:01.262Z,6.32
2023-04-22T19:08:30.836Z,7.03
2023-04-22T19:11:00.381Z,6.25
2023-04-22T19:13:30.457Z,5.65
2023-04-22T19:16:02.859Z,6.78
2023-04-22T19:18:32.495Z,7.05
2023-04-22T19:21:03.111Z,7.03
2023-04-22T19:23:32.946Z,8.23
2023-04-22T19:26:02.579Z,8.13
2023-04-22T19:28:32.152Z,9.00
2023-04-22T19:31:05.032Z,9.23
2023-04-22T19:33:34.741Z,8.13
2023-04-22T19:36:04.296Z,7.85
2023-04-22T19:38:33.967Z,7.10
2023-04-22T19:41:03.660Z,7.00
2023-04-22T19:43:33.192Z,7.30
2023-04-22T19:46:05.488Z,7.75
2023-04-22T19:48:36.380Z,8.63
2023-04-22T19:51:08.042Z,14.90
2023-04-22T19:53:38.142Z,18.48
2023-04-22T19:56:07.946Z,38.85
2023-04-22T19:58:37.929Z,34.45
2023-04-22T20:01:10.459Z,41.65
2023-04-22T20:03:40.799Z,26.85
2023-04-22T20:06:11.012Z,28.50
2023-04-22T20:08:42.372Z,26.83
2023-04-22T20:11:12.712Z,23.55
2023-04-22T20:13:43.367Z,21.00
2023-04-22T20:16:16.293Z,18.75
2023-04-22T20:18:46.458Z,21.40
2023-04-22T20:21:16.666Z,25.80
2023-04-22T20:23:47.479Z,27.27
2023-04-22T20:26:21.148Z,28.33
2023-04-22T20:28:53.375Z,21.25
2023-04-22T20:31:25.851Z,20.77
2023-04-22T20:33:55.740Z,18.70
2023-04-22T20:36:26.669Z,17.58
2023-04-22T20:38:58.413Z,19.00
2023-04-22T20:41:29.686Z,29.08
2023-04-22T20:43:59.624Z,15.30
2023-04-22T20:46:32.155Z,21.55
2023-04-22T20:49:01.732Z,22.08
2023-04-22T20:51:32.051Z,20.48
2023-04-22T20:54:01.920Z,17.42
2023-04-22T20:56:32.137Z,16.42
2023-04-22T20:59:01.877Z,16.13
2023-04-22T21:01:34.050Z,16.10
2023-04-22T21:04:04.691Z,17.05
2023-04-22T21:06:36.659Z,17.20
2023-04-22T21:09:07.797Z,14.73
2023-04-22T21:11:38.142Z,13.48
2023-04-22T21:14:08.275Z,14.32
2023-04-22T21:16:43.791Z,15.85
2023-04-22T21:19:15.287Z,16.10
2023-04-22T21:21:46.848Z,16.38
2023-04-22T21:24:17.342Z,15.70
2023-04-22T21:26:49.420Z,16.33
2023-04-22T21:29:19.492Z,16.10
2023-04-22T21:32:01.460Z,18.98
2023-04-22T21:34:37.289Z,18.35
2023-04-22T21:37:08.338Z,17.33
2023-04-22T21:39:38.243Z,19.40
2023-04-22T21:42:08.959Z,16.77
2023-04-22T21:44:39.381Z,15.32
2023-04-22T21:47:11.688Z,15.45
2023-04-22T21:49:41.236Z,15.27
2023-04-22T21:52:10.818Z,17.42
2023-04-22T21:54:40.932Z,17.95
2023-04-22T21:57:10.721Z,16.95
2023-04-22T21:59:40.282Z,16.38
2023-04-22T22:02:12.424Z,15.75
2023-04-22T22:04:42.431Z,17.88
2023-04-22T22:07:12.460Z,19.85
2023-04-22T22:09:43.348Z,18.10
2023-04-22T22:12:15.599Z,19.05
2023-04-22T22:14:46.002Z,20.25
2023-04-22T22:17:19.811Z,19.58
2023-04-22T22:19:49.359Z,19.55
2023-04-22T22:22:18.900Z,19.98
2023-04-22T22:24:48.492Z,19.27
2023-04-22T22:27:18.112Z,19.52
2023-04-22T22:29:47.659Z,19.95
2023-04-22T22:32:19.783Z,19.42
2023-04-22T22:34:49.377Z,19.42
2023-04-22T22:37:19.002Z,19.05
2023-04-22T22:39:48.564Z,20.45
2023-04-22T22:42:18.378Z,20.60
2023-04-22T22:44:47.932Z,20.48
2023-04-22T22:47:20.387Z,21.05
2023-04-22T22:49:50.155Z,19.38
2023-04-22T22:52:19.748Z,20.42
2023-04-22T22:54:51.666Z,19.30
2023-04-22T22:57:21.193Z,19.92
2023-04-22T22:59:50.746Z,20.73
2023-04-22T23:02:22.981Z,20.23
2023-04-22T23:04:52.744Z,20.52
2023-04-22T23:07:22.517Z,18.88
2023-04-22T23:09:52.028Z,21.30
2023-04-22T23:12:21.833Z,21.20
2023-04-22T23:14:51.371Z,19.73
2023-04-22T23:17:23.685Z,18.83
2023-04-22T23:19:54.412Z,19.08
2023-04-22T23:22:24.981Z,19.55
2023-04-22T23:24:55.155Z,17.50
2023-04-22T23:27:25.671Z,17.35
2023-04-22T23:29:56.044Z,18.58
2023-04-22T23:32:29.964Z,17.70
2023-04-22T23:35:02.739Z,18.63
2023-04-22T23:37:32.725Z,17.25
2023-04-22T23:40:02.287Z,18.20
2023-04-22T23:42:31.815Z,18.13
2023-04-22T23:45:01.390Z,18.58
2023-04-22T23:47:33.911Z,17.55
2023-04-22T23:50:03.517Z,14.82
2023-04-22T23:52:33.105Z,18.13
2023-04-22T23:55:03.140Z,17.48
2023-04-22T23:57:33.317Z,18.23
